createdAt,value
2023-05-22T00:00:35.689Z,17.70
2023-05-22T00:03:04.338Z,17.13
2023-05-22T00:05:34.489Z,18.27
2023-05-22T00:08:01.532Z,18.17
2023-05-22T00:10:28.877Z,17.65
2023-05-22T00:12:56.165Z,19.50
2023-05-22T00:15:23.052Z,19.03
2023-05-22T00:17:50.217Z,18.17
2023-05-22T00:20:17.519Z,22.73
2023-05-22T00:22:44.923Z,19.35
2023-05-22T00:25:11.986Z,19.53
2023-05-22T00:27:38.902Z,19.03
2023-05-22T00:30:08.536Z,19.00
2023-05-22T00:32:36.067Z,19.20
2023-05-22T00:35:03.671Z,21.20
2023-05-22T00:37:30.606Z,18.63
2023-05-22T00:39:57.606Z,20.55
2023-05-22T00:42:26.018Z,18.47
2023-05-22T00:44:53.174Z,20.07
2023-05-22T00:47:21.858Z,19.23
2023-05-22T00:49:48.646Z,19.33
2023-05-22T00:52:17.671Z,21.07
2023-05-22T00:54:46.330Z,19.93
2023-05-22T00:57:13.510Z,20.80
2023-05-22T00:59:40.503Z,22.70
2023-05-22T01:02:08.078Z,19.83
2023-05-22T01:04:35.322Z,20.10
2023-05-22T01:07:03.106Z,21.63
2023-05-22T01:09:30.840Z,20.47
2023-05-22T01:12:27.530Z,20.90
2023-05-22T01:15:07.131Z,21.50
2023-05-22T01:17:55.230Z,23.00
2023-05-22T01:20:37.233Z,22.97
2023-05-22T01:23:11.663Z,25.43
2023-05-22T01:26:10.826Z,21.93
2023-05-22T01:28:56.260Z,23.87
2023-05-22T01:31:32.846Z,23.43
2023-05-22T01:34:02.547Z,22.47
2023-05-22T01:36:35.189Z,23.03
2023-05-22T01:39:06.090Z,23.33
2023-05-22T01:41:34.414Z,24.60
2023-05-22T01:44:02.355Z,23.17
2023-05-22T01:46:30.276Z,23.93
2023-05-22T01:48:58.142Z,23.67
2023-05-22T01:51:57.683Z,25.20
2023-05-22T01:54:33.549Z,25.43
2023-05-22T01:57:25.012Z,23.83
2023-05-22T02:00:09.909Z,25.97
2023-05-22T02:02:39.575Z,25.27
2023-05-22T02:05:08.561Z,24.60
2023-05-22T02:07:39.679Z,24.07
2023-05-22T02:10:10.131Z,23.20
2023-05-22T02:12:38.009Z,24.40
2023-05-22T02:15:07.171Z,23.60
2023-05-22T02:17:40.941Z,24.77
2023-05-22T02:20:17.068Z,23.57
2023-05-22T02:22:45.889Z,23.83
2023-05-22T02:25:15.017Z,24.07
2023-05-22T02:27:46.089Z,23.27
2023-05-22T02:30:14.152Z,22.97
2023-05-22T02:32:42.034Z,24.17
2023-05-22T02:35:09.577Z,22.67
2023-05-22T02:37:37.284Z,24.57
2023-05-22T02:40:07.864Z,21.70
2023-05-22T02:42:34.994Z,23.93
2023-05-22T02:45:02.881Z,23.50
2023-05-22T02:47:29.812Z,22.83
2023-05-22T02:49:57.998Z,23.60
2023-05-22T02:52:25.487Z,22.37
2023-05-22T02:54:52.477Z,22.73
2023-05-22T02:57:19.425Z,21.97
2023-05-22T02:59:46.497Z,22.57
2023-05-22T03:02:13.890Z,22.97
2023-05-22T03:04:40.936Z,21.33
2023-05-22T03:07:08.250Z,22.50
2023-05-22T03:09:35.052Z,23.67
2023-05-22T03:12:01.818Z,22.90
2023-05-22T03:14:29.452Z,21.63
2023-05-22T03:16:57.052Z,22.43
2023-05-22T03:19:24.037Z,21.43
2023-05-22T03:21:51.179Z,23.93
2023-05-22T03:24:18.205Z,22.30
2023-05-22T03:26:45.080Z,22.60
2023-05-22T03:29:12.128Z,22.27
2023-05-22T03:31:38.931Z,22.37
2023-05-22T03:34:06.241Z,23.73
2023-05-22T03:36:36.200Z,22.77
2023-05-22T03:39:04.031Z,24.30
2023-05-22T03:41:31.169Z,24.03
2023-05-22T03:43:58.557Z,24.70
2023-05-22T03:46:25.676Z,30.07
2023-05-22T03:48:52.826Z,22.40
2023-05-22T03:51:20.404Z,23.10
2023-05-22T03:53:47.416Z,23.97
2023-05-22T03:56:14.550Z,24.00
2023-05-22T03:58:41.329Z,23.43
2023-05-22T04:01:09.996Z,22.77
2023-05-22T04:03:37.978Z,23.93
2023-05-22T04:06:05.872Z,25.00
2023-05-22T04:08:32.968Z,23.80
2023-05-22T04:11:00.102Z,23.53
2023-05-22T04:13:28.198Z,22.17
2023-05-22T04:15:56.785Z,23.10
2023-05-22T04:18:24.324Z,23.87
2023-05-22T04:20:52.201Z,23.33
2023-05-22T04:23:18.978Z,24.00
2023-05-22T04:25:48.100Z,21.60
2023-05-22T04:28:17.563Z,21.80
2023-05-22T04:30:44.874Z,20.90
2023-05-22T04:33:12.937Z,20.30
2023-05-22T04:35:40.945Z,20.13
2023-05-22T04:38:08.350Z,21.23
2023-05-22T04:40:38.459Z,20.80
2023-05-22T04:43:05.590Z,22.53
2023-05-22T04:45:33.003Z,21.17
2023-05-22T04:48:02.833Z,20.03
2023-05-22T04:50:32.819Z,21.10
2023-05-22T04:53:00.269Z,20.40
2023-05-22T04:55:27.223Z,19.80
2023-05-22T04:57:54.056Z,21.20
2023-05-22T05:00:26.530Z,19.57
2023-05-22T05:02:53.695Z,20.40
2023-05-22T05:05:20.708Z,20.70
2023-05-22T05:07:50.182Z,21.47
2023-05-22T05:10:17.421Z,21.97
2023-05-22T05:12:44.457Z,21.43
2023-05-22T05:15:11.913Z,20.57
2023-05-22T05:17:38.773Z,20.67
2023-05-22T05:20:07.238Z,21.47
2023-05-22T05:22:34.571Z,22.80
2023-05-22T05:25:01.838Z,21.57
2023-05-22T05:27:28.678Z,24.87
2023-05-22T05:29:55.622Z,21.47
2023-05-22T05:32:22.810Z,23.67
2023-05-22T05:34:49.733Z,21.93
2023-05-22T05:37:17.357Z,20.40
2023-05-22T05:39:44.185Z,22.13
2023-05-22T05:42:11.142Z,19.80
2023-05-22T05:44:38.383Z,22.73
2023-05-22T05:47:06.316Z,18.43
2023-05-22T05:49:35.663Z,20.70
2023-05-22T05:52:03.245Z,21.55
2023-05-22T05:54:30.091Z,20.27
2023-05-22T05:56:56.851Z,19.33
2023-05-22T05:59:24.597Z,19.33
2023-05-22T06:01:51.499Z,19.20
2023-05-22T06:04:18.498Z,18.50
2023-05-22T06:06:45.459Z,18.50
2023-05-22T06:09:12.612Z,18.98
2023-05-22T06:11:39.464Z,18.50
2023-05-22T06:14:08.626Z,20.23
2023-05-22T06:16:36.016Z,18.98
2023-05-22T06:19:03.018Z,20.65
2023-05-22T06:21:30.162Z,17.92
2023-05-22T06:23:57.363Z,16.98
2023-05-22T06:26:25.947Z,16.55
2023-05-22T06:28:54.369Z,17.38
2023-05-22T06:31:22.953Z,18.48
2023-05-22T06:33:50.531Z,18.60
2023-05-22T06:36:17.781Z,18.02
2023-05-22T06:38:46.092Z,18.15
2023-05-22T06:41:12.865Z,16.88
2023-05-22T06:43:39.881Z,17.83
2023-05-22T06:46:07.265Z,17.13
2023-05-22T06:48:37.722Z,16.08
2023-05-22T06:51:04.966Z,17.10
2023-05-22T06:53:32.077Z,16.90
2023-05-22T06:55:59.171Z,17.17
2023-05-22T06:58:26.306Z,17.65
2023-05-22T07:00:54.428Z,15.23
2023-05-22T07:03:21.824Z,15.80
2023-05-22T07:05:48.944Z,16.30
2023-05-22T07:08:16.178Z,14.77
2023-05-22T07:10:43.162Z,14.27
2023-05-22T07:13:10.056Z,14.13
2023-05-22T07:15:37.262Z,15.07
2023-05-22T07:18:04.225Z,15.35
2023-05-22T07:20:31.142Z,14.68
2023-05-22T07:22:58.645Z,14.70
2023-05-22T07:25:25.568Z,16.83
2023-05-22T07:27:52.781Z,16.40
2023-05-22T07:30:20.392Z,13.82
2023-05-22T07:32:48.207Z,14.00
2023-05-22T07:35:15.242Z,14.77
2023-05-22T07:37:42.094Z,14.27
2023-05-22T07:40:09.832Z,14.00
2023-05-22T07:42:36.902Z,14.85
2023-05-22T07:45:04.012Z,17.05
2023-05-22T07:47:30.833Z,14.30
2023-05-22T07:49:58.012Z,13.38
2023-05-22T07:52:25.220Z,12.73
2023-05-22T07:54:52.711Z,12.82
2023-05-22T07:57:20.478Z,12.48
2023-05-22T07:59:47.510Z,12.80
2023-05-22T08:02:14.598Z,12.05
2023-05-22T08:04:41.773Z,12.93
2023-05-22T08:07:08.962Z,12.27
2023-05-22T08:09:35.820Z,15.30
2023-05-22T08:12:03.264Z,15.73
2023-05-22T08:14:30.795Z,12.45
2023-05-22T08:16:59.245Z,13.38
2023-05-22T08:19:26.602Z,12.05
2023-05-22T08:21:58.107Z,12.57
2023-05-22T08:24:28.812Z,13.02
2023-05-22T08:26:58.571Z,13.60
2023-05-22T08:29:25.387Z,12.15
2023-05-22T08:31:54.141Z,11.48
2023-05-22T08:34:21.350Z,11.95
2023-05-22T08:36:49.822Z,14.05
2023-05-22T08:39:19.329Z,12.50
2023-05-22T08:41:47.435Z,12.63
2023-05-22T08:44:14.737Z,12.60
2023-05-22T08:46:45.905Z,12.90
2023-05-22T08:49:13.295Z,12.07
2023-05-22T08:51:46.770Z,11.45
2023-05-22T08:54:15.941Z,14.00
2023-05-22T08:56:55.687Z,10.95
2023-05-22T08:59:24.202Z,11.55
2023-05-22T09:01:53.105Z,10.90
2023-05-22T09:04:23.911Z,11.18
2023-05-22T09:06:51.511Z,11.18
2023-05-22T09:09:18.717Z,12.32
2023-05-22T09:11:45.901Z,11.02
2023-05-22T09:14:13.569Z,13.80
2023-05-22T09:16:48.664Z,11.63
2023-05-22T09:19:16.350Z,11.32
2023-05-22T09:21:48.143Z,12.88
2023-05-22T09:24:15.192Z,12.93
2023-05-22T09:26:42.518Z,11.20
2023-05-22T09:29:09.865Z,12.23
2023-05-22T09:31:45.014Z,16.02
2023-05-22T09:34:15.859Z,11.70
2023-05-22T09:36:43.356Z,11.50
2023-05-22T09:39:11.266Z,10.73
2023-05-22T09:41:40.318Z,11.20
2023-05-22T09:44:15.823Z,14.30
2023-05-22T09:46:47.807Z,11.93
2023-05-22T09:49:17.677Z,11.48
2023-05-22T09:51:50.352Z,10.90
2023-05-22T09:54:22.080Z,11.73
2023-05-22T09:56:51.693Z,11.40
2023-05-22T09:59:27.977Z,13.00
2023-05-22T10:01:57.516Z,12.40
2023-05-22T10:04:29.142Z,11.48
2023-05-22T10:06:58.922Z,11.00
2023-05-22T10:09:35.094Z,11.25
2023-05-22T10:12:07.774Z,14.05
2023-05-22T10:14:37.481Z,14.05
2023-05-22T10:17:07.241Z,11.73
2023-05-22T10:19:36.633Z,12.80
2023-05-22T10:22:07.527Z,12.10
2023-05-22T10:24:36.849Z,11.57
2023-05-22T10:27:05.065Z,13.90
2023-05-22T10:29:40.961Z,11.70
2023-05-22T10:32:34.351Z,12.93
2023-05-22T10:35:08.901Z,12.45
2023-05-22T10:37:51.096Z,12.00
2023-05-22T10:40:36.798Z,11.88
2023-05-22T10:43:04.272Z,12.70
2023-05-22T10:45:31.884Z,11.90
2023-05-22T10:48:22.123Z,12.25
2023-05-22T10:50:54.990Z,12.13
2023-05-22T10:53:31.797Z,12.35
2023-05-22T10:56:13.039Z,13.45
2023-05-22T10:58:44.031Z,13.85
2023-05-22T11:01:16.407Z,15.25
2023-05-22T11:04:05.461Z,13.57
2023-05-22T11:06:39.185Z,12.77
2023-05-22T11:09:40.009Z,13.23
2023-05-22T11:12:26.273Z,14.15
2023-05-22T11:15:10.424Z,15.93
2023-05-22T11:17:43.074Z,16.40
2023-05-22T11:20:22.791Z,15.73
2023-05-22T11:23:06.988Z,16.33
2023-05-22T11:25:41.790Z,16.80
2023-05-22T11:28:10.728Z,18.55
2023-05-22T11:30:38.761Z,17.40
2023-05-22T11:33:07.855Z,16.55
2023-05-22T11:35:36.299Z,14.88
2023-05-22T11:38:09.080Z,15.52
2023-05-22T11:40:38.452Z,15.50
2023-05-22T11:43:06.417Z,16.05
2023-05-22T11:45:39.212Z,16.13
2023-05-22T11:48:09.422Z,17.15
2023-05-22T11:50:42.370Z,16.92
2023-05-22T11:53:12.103Z,16.08
2023-05-22T11:55:40.420Z,16.10
2023-05-22T11:58:10.834Z,16.27
2023-05-22T12:00:39.789Z,16.42
2023-05-22T12:03:07.932Z,16.13
2023-05-22T12:05:37.334Z,16.58
2023-05-22T12:08:05.740Z,14.88
2023-05-22T12:10:34.498Z,16.40
2023-05-22T12:13:03.195Z,16.70
2023-05-22T12:15:29.968Z,17.02
2023-05-22T12:17:57.104Z,15.95
2023-05-22T12:20:30.476Z,16.30
2023-05-22T12:22:57.415Z,17.20
2023-05-22T12:25:25.035Z,16.10
2023-05-22T12:27:52.115Z,16.02
2023-05-22T12:30:19.777Z,16.08
2023-05-22T12:32:52.385Z,15.88
2023-05-22T12:35:19.613Z,18.13
2023-05-22T12:37:54.014Z,16.80
2023-05-22T12:40:23.558Z,17.10
2023-05-22T12:42:50.778Z,18.77
2023-05-22T12:45:18.759Z,18.20
2023-05-22T12:47:47.192Z,17.80
2023-05-22T12:50:15.766Z,18.38
2023-05-22T12:52:44.498Z,19.38
2023-05-22T12:55:13.648Z,20.27
2023-05-22T12:57:42.051Z,18.45
2023-05-22T13:00:11.929Z,17.55
2023-05-22T13:02:40.592Z,17.83
2023-05-22T13:05:09.303Z,19.35
2023-05-22T13:07:41.456Z,19.42
2023-05-22T13:10:10.471Z,18.80
2023-05-22T13:12:39.629Z,19.90
2023-05-22T13:15:08.134Z,19.52
2023-05-22T13:17:36.488Z,21.58
2023-05-22T13:20:05.703Z,17.85
2023-05-22T13:22:33.872Z,19.88
2023-05-22T13:25:01.750Z,19.35
2023-05-22T13:27:32.777Z,23.02
2023-05-22T13:30:01.370Z,20.48
2023-05-22T13:32:30.981Z,19.55
2023-05-22T13:34:59.428Z,19.42
2023-05-22T13:37:27.727Z,18.58
2023-05-22T13:39:56.406Z,18.85
2023-05-22T13:42:23.558Z,18.35
2023-05-22T13:44:50.880Z,18.38
2023-05-22T13:47:18.654Z,18.98
2023-05-22T13:49:47.230Z,17.55
2023-05-22T13:52:14.251Z,17.15
2023-05-22T13:54:41.581Z,18.58
2023-05-22T13:57:08.443Z,18.88
2023-05-22T13:59:35.610Z,18.73
2023-05-22T14:02:03.370Z,17.95
2023-05-22T14:04:30.563Z,20.80
2023-05-22T14:06:57.521Z,26.08
2023-05-22T14:09:24.830Z,18.63
2023-05-22T14:11:53.061Z,18.45
2023-05-22T14:14:24.088Z,20.63
2023-05-22T14:16:51.836Z,18.63
2023-05-22T14:19:19.655Z,19.65
2023-05-22T14:21:51.405Z,20.13
2023-05-22T14:24:18.596Z,20.83
2023-05-22T14:26:45.483Z,20.98
2023-05-22T14:29:12.848Z,22.30
2023-05-22T14:31:50.526Z,10.65
2023-05-22T14:34:19.479Z,7.43
2023-05-22T14:36:46.860Z,7.45
2023-05-22T14:39:13.779Z,6.68
2023-05-22T14:41:40.882Z,10.95
2023-05-22T14:44:08.315Z,8.73
2023-05-22T14:46:35.357Z,9.50
2023-05-22T14:49:02.476Z,7.70
2023-05-22T14:51:29.696Z,10.35
2023-05-22T14:53:56.657Z,7.97
2023-05-22T14:56:24.720Z,9.43
2023-05-22T14:58:51.576Z,7.97
2023-05-22T15:01:18.659Z,6.05
2023-05-22T15:03:46.620Z,6.43
2023-05-22T15:06:13.610Z,6.32
2023-05-22T15:08:41.590Z,6.65
2023-05-22T15:11:08.908Z,4.85
2023-05-22T15:13:37.053Z,4.10
2023-05-22T15:16:04.519Z,7.10
2023-05-22T15:18:31.622Z,5.80
2023-05-22T15:20:59.420Z,4.57
2023-05-22T15:23:27.007Z,4.25
2023-05-22T15:25:54.557Z,4.95
2023-05-22T15:28:23.186Z,5.85
2023-05-22T15:30:52.180Z,4.90
2023-05-22T15:33:20.590Z,5.78
2023-05-22T15:35:48.691Z,6.65
2023-05-22T15:38:16.804Z,5.55
2023-05-22T15:40:45.639Z,7.97
2023-05-22T15:43:13.785Z,7.97
2023-05-22T15:45:40.900Z,8.52
2023-05-22T15:48:08.799Z,9.23
2023-05-22T15:50:35.662Z,7.50
2023-05-22T15:53:02.606Z,6.85
2023-05-22T15:55:30.087Z,6.00
2023-05-22T15:57:58.423Z,6.60
2023-05-22T16:00:27.673Z,7.03
2023-05-22T16:02:54.962Z,9.13
2023-05-22T16:05:22.124Z,8.20
2023-05-22T16:07:49.023Z,8.60
2023-05-22T16:10:16.093Z,6.30
2023-05-22T16:12:42.937Z,7.22
2023-05-22T16:15:10.235Z,11.10
2023-05-22T16:17:39.447Z,11.98
2023-05-22T16:20:08.812Z,12.60
2023-05-22T16:22:48.111Z,15.18
2023-05-22T16:25:19.064Z,17.00
2023-05-22T16:27:45.981Z,11.07
2023-05-22T16:30:17.110Z,14.87
2023-05-22T16:32:48.406Z,10.67
2023-05-22T16:35:16.619Z,12.57
2023-05-22T16:37:44.195Z,11.13
2023-05-22T16:40:11.730Z,9.97
2023-05-22T16:42:38.850Z,9.53
2023-05-22T16:45:06.719Z,9.60
2023-05-22T16:47:34.025Z,10.50
2023-05-22T16:50:01.176Z,10.30
2023-05-22T16:52:28.269Z,10.70
2023-05-22T16:54:55.471Z,11.57
2023-05-22T16:57:22.761Z,11.20
2023-05-22T16:59:50.188Z,12.60
2023-05-22T17:02:19.026Z,12.67
2023-05-22T17:04:47.067Z,14.03
2023-05-22T17:07:15.556Z,12.00
2023-05-22T17:09:45.368Z,14.77
2023-05-22T17:12:13.466Z,13.60
2023-05-22T17:14:41.020Z,12.90
2023-05-22T17:17:08.239Z,14.27
2023-05-22T17:19:36.033Z,13.97
2023-05-22T17:22:03.415Z,16.80
2023-05-22T17:24:30.666Z,14.03
2023-05-22T17:26:57.834Z,17.07
2023-05-22T17:29:28.268Z,16.90
2023-05-22T17:31:55.612Z,15.60
2023-05-22T17:34:24.438Z,13.20
2023-05-22T17:36:51.263Z,14.53
2023-05-22T17:39:18.445Z,19.33
2023-05-22T17:41:45.376Z,16.17
2023-05-22T17:44:12.276Z,15.83
2023-05-22T17:46:42.862Z,14.20
2023-05-22T17:49:09.882Z,18.63
2023-05-22T17:51:38.062Z,22.70
2023-05-22T17:54:09.791Z,18.03
2023-05-22T17:56:39.520Z,17.80
2023-05-22T17:59:07.747Z,15.07
2023-05-22T18:01:35.930Z,20.20
2023-05-22T18:04:04.831Z,15.03
2023-05-22T18:06:34.798Z,14.83
2023-05-22T18:09:04.628Z,16.97
2023-05-22T18:11:32.534Z,13.33
2023-05-22T18:13:59.969Z,13.17
2023-05-22T18:16:28.218Z,10.40
2023-05-22T18:18:55.453Z,11.73
2023-05-22T18:21:23.991Z,8.97
2023-05-22T18:23:51.616Z,10.93
2023-05-22T18:26:19.141Z,6.93
2023-05-22T18:28:49.019Z,10.03
2023-05-22T18:31:18.090Z,13.03
2023-05-22T18:33:46.821Z,10.67
2023-05-22T18:36:14.380Z,8.67
2023-05-22T18:38:41.687Z,11.63
2023-05-22T18:41:09.218Z,11.70
2023-05-22T18:43:36.087Z,9.80
2023-05-22T18:46:03.557Z,11.97
2023-05-22T18:48:31.683Z,10.97
2023-05-22T18:50:59.030Z,10.60
2023-05-22T18:53:26.460Z,13.40
2023-05-22T18:55:54.206Z,14.53
2023-05-22T18:58:21.300Z,13.07
2023-05-22T19:00:48.877Z,14.43
2023-05-22T19:03:15.864Z,14.93
2023-05-22T19:05:43.142Z,14.80
2023-05-22T19:08:10.656Z,14.83
2023-05-22T19:10:37.633Z,16.50
2023-05-22T19:13:04.567Z,19.07
2023-05-22T19:15:31.912Z,17.43
2023-05-22T19:17:58.850Z,16.67
2023-05-22T19:20:26.148Z,17.20
2023-05-22T19:22:54.045Z,17.73
2023-05-22T19:25:21.247Z,19.90
2023-05-22T19:27:48.520Z,18.50
2023-05-22T19:30:16.765Z,18.20
2023-05-22T19:32:43.904Z,17.73
2023-05-22T19:35:13.688Z,17.57
2023-05-22T19:37:40.958Z,19.40
2023-05-22T19:40:09.734Z,17.83
2023-05-22T19:42:38.899Z,18.10
2023-05-22T19:45:07.417Z,17.53
2023-05-22T19:47:34.952Z,18.63
2023-05-22T19:50:02.222Z,16.93
2023-05-22T19:52:29.417Z,17.37
2023-05-22T19:54:56.270Z,18.03
2023-05-22T19:57:23.135Z,17.00
2023-05-22T19:59:50.980Z,17.20
2023-05-22T20:02:17.940Z,18.23
2023-05-22T20:04:48.324Z,16.10
2023-05-22T20:07:15.814Z,16.60
2023-05-22T20:09:42.987Z,16.73
2023-05-22T20:12:10.539Z,17.87
2023-05-22T20:14:37.973Z,18.07
2023-05-22T20:17:05.698Z,16.50
2023-05-22T20:19:34.786Z,17.43
2023-05-22T20:22:03.083Z,18.50
2023-05-22T20:24:31.010Z,17.13
2023-05-22T20:26:57.938Z,17.23
2023-05-22T20:29:25.332Z,17.33
2023-05-22T20:31:54.984Z,16.83
2023-05-22T20:34:23.535Z,17.13
2023-05-22T20:36:50.777Z,15.33
2023-05-22T20:39:18.095Z,18.13
2023-05-22T20:41:45.546Z,18.93
2023-05-22T20:44:12.749Z,17.17
2023-05-22T20:46:39.768Z,18.77
2023-05-22T20:49:06.819Z,23.57
2023-05-22T20:51:34.290Z,20.27
2023-05-22T20:54:01.384Z,20.63
2023-05-22T20:56:28.907Z,20.27
2023-05-22T20:58:56.452Z,20.27
2023-05-22T21:01:24.949Z,21.70
2023-05-22T21:03:56.620Z,22.57
2023-05-22T21:06:23.772Z,24.60
2023-05-22T21:08:54.200Z,25.53
2023-05-22T21:11:21.449Z,27.83
2023-05-22T21:13:48.347Z,26.50
2023-05-22T21:16:15.536Z,31.77
2023-05-22T21:18:43.075Z,33.87
2023-05-22T21:21:10.115Z,31.83
2023-05-22T21:23:37.427Z,35.77
2023-05-22T21:26:04.731Z,37.00
2023-05-22T21:28:31.710Z,36.17
2023-05-22T21:31:00.717Z,36.70
2023-05-22T21:33:27.953Z,39.30
2023-05-22T21:35:54.727Z,43.63
2023-05-22T21:38:29.392Z,43.33
2023-05-22T21:40:56.369Z,47.50
2023-05-22T21:43:25.432Z,44.00
2023-05-22T21:45:52.239Z,43.67
2023-05-22T21:48:19.288Z,47.07
2023-05-22T21:50:46.513Z,45.43
2023-05-22T21:53:13.780Z,46.67
2023-05-22T21:55:41.042Z,44.47
2023-05-22T21:58:08.117Z,46.47
2023-05-22T22:00:41.226Z,45.73
2023-05-22T22:03:08.642Z,47.50
2023-05-22T22:05:36.090Z,49.53
2023-05-22T22:08:03.114Z,45.63
2023-05-22T22:10:30.186Z,53.13
2023-05-22T22:12:57.036Z,47.27
2023-05-22T22:15:24.003Z,49.10
2023-05-22T22:17:52.501Z,49.97
2023-05-22T22:20:30.380Z,42.43
2023-05-22T22:23:07.714Z,43.20
2023-05-22T22:25:34.827Z,40.03
2023-05-22T22:28:01.848Z,40.17
2023-05-22T22:30:29.471Z,34.07
2023-05-22T22:32:56.708Z,33.27
2023-05-22T22:35:23.555Z,38.50
2023-05-22T22:37:51.132Z,33.90
2023-05-22T22:40:18.878Z,33.87
2023-05-22T22:42:45.899Z,33.60
2023-05-22T22:45:12.948Z,33.40
2023-05-22T22:47:39.853Z,32.73
2023-05-22T22:50:07.575Z,31.30
2023-05-22T22:52:34.607Z,34.00
2023-05-22T22:55:02.212Z,31.90
2023-05-22T22:57:29.100Z,29.67
2023-05-22T22:59:57.599Z,29.97
2023-05-22T23:02:24.517Z,29.97
2023-05-22T23:04:51.757Z,34.80
2023-05-22T23:07:18.828Z,31.00
2023-05-22T23:09:45.648Z,27.23
2023-05-22T23:12:12.635Z,27.20
2023-05-22T23:14:40.099Z,26.93
2023-05-22T23:17:06.870Z,27.37
2023-05-22T23:19:33.774Z,30.33
2023-05-22T23:22:00.799Z,26.53
2023-05-22T23:24:27.611Z,23.33
2023-05-22T23:26:54.906Z,26.53
2023-05-22T23:29:22.019Z,24.17
2023-05-22T23:31:50.657Z,24.67
2023-05-22T23:34:18.005Z,29.67
2023-05-22T23:36:45.115Z,26.70
2023-05-22T23:39:12.013Z,24.27
2023-05-22T23:41:38.869Z,24.40
2023-05-22T23:44:06.373Z,23.23
2023-05-22T23:46:33.253Z,23.23
2023-05-22T23:49:00.277Z,22.40
2023-05-22T23:51:27.070Z,23.97
2023-05-22T23:53:54.160Z,24.97
2023-05-22T23:56:21.853Z,26.93
2023-05-22T23:58:48.947Z,22.87
